createdAt,value
2023-04-23T00:00:49.344Z,25.20
2023-04-23T00:01:49.353Z,25.20
2023-04-23T00:02:49.488Z,25.20
2023-04-23T00:03:49.558Z,25.20
2023-04-23T00:04:49.596Z,25.18
2023-04-23T00:05:49.405Z,25.19
2023-04-23T00:06:49.442Z,25.18
2023-04-23T00:07:49.481Z,25.18
2023-04-23T00:08:49.417Z,25.18
2023-04-23T00:09:49.404Z,25.18
2023-04-23T00:10:49.502Z,25.17
2023-04-23T00:11:49.479Z,25.17
2023-04-23T00:12:49.482Z,25.16
2023-04-23T00:13:49.524Z,25.16
2023-04-23T00:14:49.498Z,25.16
2023-04-23T00:15:49.499Z,25.16
2023-04-23T00:16:49.539Z,25.15
2023-04-23T00:17:49.583Z,25.15
2023-04-23T00:18:49.568Z,25.15
2023-04-23T00:19:49.568Z,25.15
2023-04-23T00:20:49.559Z,25.14
2023-04-23T00:21:49.578Z,25.13
2023-04-23T00:22:49.594Z,25.14
2023-04-23T00:23:49.583Z,25.13
2023-04-23T00:24:49.671Z,25.13
2023-04-23T00:25:49.631Z,25.13
2023-04-23T00:26:49.684Z,25.12
2023-04-23T00:27:49.637Z,25.12
2023-04-23T00:28:49.648Z,25.12
2023-04-23T00:29:49.690Z,25.11
2023-04-23T00:30:49.692Z,25.11
2023-04-23T00:31:49.776Z,25.11
2023-04-23T00:32:49.752Z,25.11
2023-04-23T00:33:49.735Z,25.11
2023-04-23T00:34:49.747Z,25.11
2023-04-23T00:35:49.789Z,25.10
2023-04-23T00:36:49.779Z,25.10
2023-04-23T00:37:49.847Z,25.10
2023-04-23T00:38:49.819Z,25.09
2023-04-23T00:39:49.869Z,25.09
2023-04-23T00:40:49.871Z,25.09
2023-04-23T00:41:49.876Z,25.08
2023-04-23T00:42:49.930Z,25.08
2023-04-23T00:43:49.930Z,25.08
2023-04-23T00:44:49.941Z,25.08
2023-04-23T00:45:50.105Z,25.08
2023-04-23T00:46:49.985Z,25.08
2023-04-23T00:47:50.060Z,25.08
2023-04-23T00:48:50.024Z,25.06
2023-04-23T00:49:50.035Z,25.07
2023-04-23T00:50:50.080Z,25.07
2023-04-23T00:51:50.070Z,25.07
2023-04-23T00:52:50.171Z,25.07
2023-04-23T00:53:50.174Z,25.06
2023-04-23T00:54:50.175Z,25.06
2023-04-23T00:55:50.241Z,25.05
2023-04-23T00:56:50.190Z,25.06
2023-04-23T00:57:50.261Z,25.04
2023-04-23T00:58:50.253Z,25.04
2023-04-23T00:59:50.270Z,25.04
2023-04-23T01:00:50.333Z,25.04
2023-04-23T01:01:50.327Z,25.04
2023-04-23T01:02:50.490Z,25.04
2023-04-23T01:03:50.470Z,25.04
2023-04-23T01:04:50.390Z,25.03
2023-04-23T01:05:50.426Z,25.03
2023-04-23T01:06:50.426Z,25.03
2023-04-23T01:07:50.431Z,25.03
2023-04-23T01:08:50.471Z,25.03
2023-04-23T01:09:50.468Z,25.01
2023-04-23T01:10:50.542Z,25.03
2023-04-23T01:11:50.494Z,25.02
2023-04-23T01:12:50.534Z,25.01
2023-04-23T01:13:50.550Z,25.01
2023-04-23T01:14:50.626Z,25.01
2023-04-23T01:15:50.609Z,25.01
2023-04-23T01:16:50.618Z,25.01
2023-04-23T01:17:50.711Z,25.01
2023-04-23T01:18:50.650Z,24.99
2023-04-23T01:19:50.653Z,25.00
2023-04-23T01:20:50.667Z,25.00
2023-04-23T01:21:50.696Z,25.00
2023-04-23T01:22:50.717Z,25.00
2023-04-23T01:23:50.786Z,24.99
2023-04-23T01:24:50.755Z,24.99
2023-04-23T01:25:50.770Z,24.98
2023-04-23T01:26:50.796Z,24.99
2023-04-23T01:27:50.871Z,24.98
2023-04-23T01:28:50.865Z,24.98
2023-04-23T01:29:50.852Z,24.97
2023-04-23T01:30:50.951Z,24.98
2023-04-23T01:31:50.953Z,24.98
2023-04-23T01:32:50.944Z,24.97
2023-04-23T01:33:50.952Z,24.97
2023-04-23T01:34:50.960Z,24.97
2023-04-23T01:35:51.016Z,24.96
2023-04-23T01:36:51.001Z,24.96
2023-04-23T01:37:51.087Z,24.96
2023-04-23T01:38:51.096Z,24.95
2023-04-23T01:39:51.156Z,24.96
2023-04-23T01:40:51.095Z,24.95
2023-04-23T01:41:51.150Z,24.95
2023-04-23T01:42:51.160Z,24.95
2023-04-23T01:43:51.189Z,24.95
2023-04-23T01:44:51.230Z,24.94
2023-04-23T01:45:51.247Z,24.94
2023-04-23T01:46:51.290Z,24.94
2023-04-23T01:47:51.321Z,24.94
2023-04-23T01:48:51.348Z,24.94
2023-04-23T01:49:51.369Z,24.94
2023-04-23T01:50:51.488Z,24.93
2023-04-23T01:51:51.498Z,24.93
2023-04-23T01:52:51.425Z,24.93
2023-04-23T01:53:51.456Z,24.92
2023-04-23T01:54:51.472Z,24.93
2023-04-23T01:55:51.549Z,24.93
2023-04-23T01:56:51.538Z,24.92
2023-04-23T01:57:51.572Z,24.92
2023-04-23T01:58:51.574Z,24.92
2023-04-23T01:59:51.651Z,24.92
2023-04-23T02:00:51.655Z,24.92
2023-04-23T02:01:51.701Z,24.92
2023-04-23T02:02:51.891Z,24.91
2023-04-23T02:03:51.783Z,24.92
2023-04-23T02:04:51.736Z,24.91
2023-04-23T02:05:51.769Z,24.90
2023-04-23T02:06:51.804Z,24.90
2023-04-23T02:07:51.827Z,24.91
2023-04-23T02:08:51.911Z,24.90
2023-04-23T02:09:51.983Z,24.89
2023-04-23T02:10:51.909Z,24.90
2023-04-23T02:11:51.954Z,24.89
2023-04-23T02:12:51.987Z,24.90
2023-04-23T02:13:52.008Z,24.89
2023-04-23T02:14:52.039Z,24.88
2023-04-23T02:15:52.099Z,24.89
2023-04-23T02:16:52.104Z,24.89
2023-04-23T02:17:52.173Z,24.89
2023-04-23T02:18:52.190Z,24.88
2023-04-23T02:19:52.216Z,24.87
2023-04-23T02:20:52.237Z,24.88
2023-04-23T02:21:52.297Z,24.88
2023-04-23T02:22:52.313Z,24.87
2023-04-23T02:23:52.373Z,24.87
2023-04-23T02:24:52.367Z,24.86
2023-04-23T02:25:52.440Z,24.87
2023-04-23T02:26:52.406Z,24.87
2023-04-23T02:27:52.457Z,24.87
2023-04-23T02:28:52.502Z,24.87
2023-04-23T02:29:52.734Z,24.86
2023-04-23T02:30:52.576Z,24.84
2023-04-23T02:31:52.776Z,24.85
2023-04-23T02:32:52.717Z,24.85
2023-04-23T02:33:52.734Z,24.85
2023-04-23T02:34:52.717Z,24.85
2023-04-23T02:35:52.758Z,24.84
2023-04-23T02:36:52.821Z,24.85
2023-04-23T02:37:52.887Z,24.84
2023-04-23T02:38:52.885Z,24.84
2023-04-23T02:39:52.869Z,24.84
2023-04-23T02:40:52.947Z,24.83
2023-04-23T02:41:53.016Z,24.83
2023-04-23T02:42:52.967Z,24.84
2023-04-23T02:43:53.013Z,24.83
2023-04-23T02:44:53.073Z,24.83
2023-04-23T02:45:53.128Z,24.84
2023-04-23T02:46:53.245Z,24.83
2023-04-23T02:47:53.181Z,24.82
2023-04-23T02:48:53.216Z,24.83
2023-04-23T02:49:53.330Z,24.82
2023-04-23T02:50:53.253Z,24.81
2023-04-23T02:51:53.324Z,24.82
2023-04-23T02:52:53.367Z,24.81
2023-04-23T02:53:53.448Z,24.82
2023-04-23T02:54:53.401Z,24.82
2023-04-23T02:55:53.455Z,24.82
2023-04-23T02:56:53.512Z,24.81
2023-04-23T02:57:53.536Z,24.81
2023-04-23T02:58:53.581Z,24.81
2023-04-23T02:59:53.670Z,24.81
2023-04-23T03:00:53.734Z,24.81
2023-04-23T03:01:53.758Z,24.80
2023-04-23T03:02:53.820Z,24.80
2023-04-23T03:03:53.920Z,24.79
2023-04-23T03:04:53.862Z,24.81
2023-04-23T03:05:53.871Z,24.80
2023-04-23T03:06:53.910Z,24.80
2023-04-23T03:07:53.945Z,24.79
2023-04-23T03:08:53.978Z,24.79
2023-04-23T03:09:54.053Z,24.79
2023-04-23T03:10:54.075Z,24.79
2023-04-23T03:11:54.108Z,24.78
2023-04-23T03:12:54.187Z,24.79
2023-04-23T03:13:54.191Z,24.78
2023-04-23T03:14:54.247Z,24.79
2023-04-23T03:15:54.312Z,24.78
2023-04-23T03:16:54.354Z,24.78
2023-04-23T03:17:54.419Z,24.78
2023-04-23T03:18:54.435Z,24.77
2023-04-23T03:19:54.485Z,24.77
2023-04-23T03:20:54.470Z,24.77
2023-04-23T03:21:54.545Z,24.77
2023-04-23T03:22:54.611Z,24.77
2023-04-23T03:23:54.604Z,24.77
2023-04-23T03:24:54.681Z,24.77
2023-04-23T03:25:54.731Z,24.77
2023-04-23T03:26:54.760Z,24.77
2023-04-23T03:27:54.797Z,24.76
2023-04-23T03:28:54.854Z,24.76
2023-04-23T03:29:54.866Z,24.76
2023-04-23T03:30:55.012Z,24.76
2023-04-23T03:31:54.995Z,24.76
2023-04-23T03:32:55.048Z,24.75
2023-04-23T03:33:55.091Z,24.76
2023-04-23T03:34:55.103Z,24.75
2023-04-23T03:35:55.163Z,24.76
2023-04-23T03:36:55.254Z,24.75
2023-04-23T03:37:55.244Z,24.74
2023-04-23T03:38:55.329Z,24.74
2023-04-23T03:39:55.327Z,24.74
2023-04-23T03:40:55.367Z,24.74
2023-04-23T03:41:55.459Z,24.74
2023-04-23T03:42:55.438Z,24.74
2023-04-23T03:43:55.518Z,24.74
2023-04-23T03:44:55.537Z,24.73
2023-04-23T03:45:55.670Z,24.74
2023-04-23T03:46:55.651Z,24.73
2023-04-23T03:47:55.732Z,24.72
2023-04-23T03:48:55.758Z,24.73
2023-04-23T03:49:55.803Z,24.73
2023-04-23T03:50:55.815Z,24.73
2023-04-23T03:51:55.886Z,24.73
2023-04-23T03:52:56.003Z,24.73
2023-04-23T03:53:55.999Z,24.73
2023-04-23T03:54:56.042Z,24.72
2023-04-23T03:56:05.055Z,24.72
2023-04-23T03:56:56.066Z,24.71
2023-04-23T03:57:56.072Z,24.72
2023-04-23T03:58:56.047Z,24.71
2023-04-23T03:59:56.095Z,24.71
2023-04-23T04:00:56.054Z,24.71
2023-04-23T04:01:56.081Z,24.72
2023-04-23T04:02:56.173Z,24.70
2023-04-23T04:03:56.260Z,24.71
2023-04-23T04:04:56.234Z,24.71
2023-04-23T04:05:56.034Z,24.71
2023-04-23T04:06:56.049Z,24.71
2023-04-23T04:07:56.014Z,24.70
2023-04-23T04:08:56.000Z,24.70
2023-04-23T04:09:56.018Z,24.70
2023-04-23T04:10:56.005Z,24.69
2023-04-23T04:11:55.974Z,24.69
2023-04-23T04:12:55.996Z,24.69
2023-04-23T04:13:55.975Z,24.69
2023-04-23T04:14:55.984Z,24.69
2023-04-23T04:15:56.010Z,24.69
2023-04-23T04:16:55.964Z,24.68
2023-04-23T04:17:56.060Z,24.68
2023-04-23T04:18:56.685Z,24.68
2023-04-23T04:19:55.981Z,24.69
2023-04-23T04:20:55.922Z,24.68
2023-04-23T04:21:55.940Z,24.68
2023-04-23T04:22:55.951Z,24.68
2023-04-23T04:23:55.897Z,24.68
2023-04-23T04:24:55.906Z,24.67
2023-04-23T04:25:55.916Z,24.67
2023-04-23T04:26:55.877Z,24.68
2023-04-23T04:27:55.893Z,24.67
2023-04-23T04:28:55.874Z,24.67
2023-04-23T04:29:55.878Z,24.68
2023-04-23T04:30:55.880Z,24.67
2023-04-23T04:31:55.949Z,24.67
2023-04-23T04:32:55.829Z,24.67
2023-04-23T04:33:55.867Z,24.66
2023-04-23T04:34:55.853Z,24.67
2023-04-23T04:35:55.818Z,24.66
2023-04-23T04:36:55.809Z,24.66
2023-04-23T04:37:55.782Z,24.66
2023-04-23T04:38:55.829Z,24.66
2023-04-23T04:39:55.766Z,24.65
2023-04-23T04:40:55.810Z,24.66
2023-04-23T04:41:55.825Z,24.65
2023-04-23T04:42:55.795Z,24.65
2023-04-23T04:43:55.917Z,24.66
2023-04-23T04:44:55.872Z,24.65
2023-04-23T04:45:55.953Z,24.65
2023-04-23T04:46:56.035Z,24.65
2023-04-23T04:47:56.091Z,24.65
2023-04-23T04:48:56.075Z,24.65
2023-04-23T04:49:56.114Z,24.65
2023-04-23T04:50:56.198Z,24.66
2023-04-23T04:51:56.226Z,24.65
2023-04-23T04:52:56.263Z,24.65
2023-04-23T04:53:56.304Z,24.65
2023-04-23T04:54:56.377Z,24.65
2023-04-23T04:55:56.402Z,24.64
2023-04-23T04:56:56.470Z,24.64
2023-04-23T04:57:56.543Z,24.65
2023-04-23T04:58:56.535Z,24.65
2023-04-23T04:59:56.588Z,24.65
2023-04-23T05:00:56.751Z,24.64
2023-04-23T05:01:56.798Z,24.64
2023-04-23T05:02:56.841Z,24.65
2023-04-23T05:03:56.942Z,24.64
2023-04-23T05:04:56.830Z,24.65
2023-04-23T05:05:56.900Z,24.64
2023-04-23T05:06:56.922Z,24.64
2023-04-23T05:07:56.949Z,24.64
2023-04-23T05:08:57.026Z,24.64
2023-04-23T05:09:57.041Z,24.64
2023-04-23T05:10:57.175Z,24.63
2023-04-23T05:11:57.104Z,24.64
2023-04-23T05:12:57.215Z,24.64
2023-04-23T05:13:58.216Z,24.64
2023-04-23T05:14:57.384Z,24.63
2023-04-23T05:15:57.319Z,24.63
2023-04-23T05:16:57.480Z,24.63
2023-04-23T05:17:57.460Z,24.63
2023-04-23T05:18:57.449Z,24.63
2023-04-23T05:19:57.506Z,24.63
2023-04-23T05:20:57.686Z,24.64
2023-04-23T05:21:57.577Z,24.63
2023-04-23T05:22:57.639Z,24.63
2023-04-23T05:23:57.686Z,24.63
2023-04-23T05:24:57.769Z,24.63
2023-04-23T05:25:57.751Z,24.63
2023-04-23T05:26:57.794Z,24.63
2023-04-23T05:27:57.872Z,24.63
2023-04-23T05:28:57.912Z,24.64
2023-04-23T05:29:57.942Z,24.63
2023-04-23T05:30:57.970Z,24.64
2023-04-23T05:31:58.064Z,24.64
2023-04-23T05:32:58.112Z,24.64
2023-04-23T05:33:58.121Z,24.64
2023-04-23T05:34:58.163Z,24.65
2023-04-23T05:35:58.177Z,24.64
2023-04-23T05:36:58.235Z,24.64
2023-04-23T05:37:58.276Z,24.64
2023-04-23T05:38:58.305Z,24.65
2023-04-23T05:39:58.405Z,24.64
2023-04-23T05:40:58.418Z,24.65
2023-04-23T05:41:58.472Z,24.65
2023-04-23T05:42:58.486Z,24.65
2023-04-23T05:43:58.539Z,24.66
2023-04-23T05:44:58.587Z,24.65
2023-04-23T05:45:58.663Z,24.65
2023-04-23T05:46:58.661Z,24.66
2023-04-23T05:47:58.725Z,24.66
2023-04-23T05:48:58.730Z,24.66
2023-04-23T05:49:58.779Z,24.65
2023-04-23T05:50:58.833Z,24.66
2023-04-23T05:51:58.904Z,24.67
2023-04-23T05:52:58.958Z,24.66
2023-04-23T05:53:58.953Z,24.67
2023-04-23T05:54:59.063Z,24.66
2023-04-23T05:55:59.082Z,24.67
2023-04-23T05:56:59.128Z,24.66
2023-04-23T05:57:59.130Z,24.67
2023-04-23T05:58:59.259Z,24.67
2023-04-23T05:59:59.238Z,24.67
2023-04-23T06:00:59.277Z,24.67
2023-04-23T06:01:59.277Z,24.67
2023-04-23T06:02:59.453Z,24.68
2023-04-23T06:03:59.636Z,24.67
2023-04-23T06:04:59.720Z,24.68
2023-04-23T06:05:59.545Z,24.68
2023-04-23T06:06:59.556Z,24.68
2023-04-23T06:07:59.602Z,24.68
2023-04-23T06:08:59.670Z,24.69
2023-04-23T06:09:59.698Z,24.70
2023-04-23T06:10:59.719Z,24.69
2023-04-23T06:11:59.910Z,24.69
2023-04-23T06:12:59.848Z,24.70
2023-04-23T06:13:59.992Z,24.69
2023-04-23T06:14:59.954Z,24.70
2023-04-23T06:15:59.986Z,24.70
2023-04-23T06:17:00.037Z,24.70
2023-04-23T06:18:00.168Z,24.70
2023-04-23T06:19:00.156Z,24.70
2023-04-23T06:20:00.204Z,24.71
2023-04-23T06:21:00.221Z,24.71
2023-04-23T06:22:00.269Z,24.71
2023-04-23T06:23:00.278Z,24.71
2023-04-23T06:24:00.367Z,24.71
2023-04-23T06:25:00.391Z,24.71
2023-04-23T06:26:00.443Z,24.72
2023-04-23T06:27:00.502Z,24.72
2023-04-23T06:28:00.518Z,24.73
2023-04-23T06:29:00.576Z,24.72
2023-04-23T06:30:00.630Z,24.73
2023-04-23T06:31:00.749Z,24.73
2023-04-23T06:32:00.704Z,24.72
2023-04-23T06:33:00.766Z,24.73
2023-04-23T06:34:00.806Z,24.73
2023-04-23T06:35:02.314Z,24.73
2023-04-23T06:36:00.929Z,24.73
2023-04-23T06:37:00.929Z,24.74
2023-04-23T06:38:00.990Z,24.73
2023-04-23T06:39:01.032Z,24.73
2023-04-23T06:40:01.096Z,24.74
2023-04-23T06:41:01.108Z,24.74
2023-04-23T06:42:01.164Z,24.74
2023-04-23T06:43:01.212Z,24.74
2023-04-23T06:44:01.235Z,24.75
2023-04-23T06:45:01.297Z,24.75
2023-04-23T06:46:01.358Z,24.76
2023-04-23T06:47:01.461Z,24.76
2023-04-23T06:48:01.498Z,24.75
2023-04-23T06:49:01.502Z,24.76
2023-04-23T06:50:01.530Z,24.76
2023-04-23T06:51:01.599Z,24.77
2023-04-23T06:52:01.663Z,24.77
2023-04-23T06:53:01.655Z,24.77
2023-04-23T06:54:01.708Z,24.78
2023-04-23T06:55:01.764Z,24.79
2023-04-23T06:56:01.784Z,24.78
2023-04-23T06:57:01.873Z,24.79
2023-04-23T06:58:01.944Z,24.80
2023-04-23T06:59:01.976Z,24.79
2023-04-23T07:00:02.060Z,24.81
2023-04-23T07:01:02.044Z,24.81
2023-04-23T07:02:02.080Z,24.82
2023-04-23T07:03:02.219Z,24.81
2023-04-23T07:04:02.216Z,24.82
2023-04-23T07:05:02.233Z,24.83
2023-04-23T07:06:02.247Z,24.83
2023-04-23T07:07:02.333Z,24.83
2023-04-23T07:08:02.520Z,24.84
2023-04-23T07:10:16.941Z,24.81
2023-04-23T07:11:14.935Z,24.82
2023-04-23T07:12:14.967Z,24.83
2023-04-23T07:13:14.952Z,24.84
2023-04-23T07:14:14.916Z,24.85
2023-04-23T07:15:14.993Z,24.85
2023-04-23T07:16:15.052Z,24.86
2023-04-23T07:17:15.155Z,24.87
2023-04-23T07:18:14.914Z,24.87
2023-04-23T07:19:14.911Z,24.87
2023-04-23T07:20:14.938Z,24.88
2023-04-23T07:21:14.867Z,24.88
2023-04-23T07:22:14.924Z,24.89
2023-04-23T07:23:14.877Z,24.90
2023-04-23T07:24:14.897Z,24.90
2023-04-23T07:25:14.889Z,24.90
2023-04-23T07:26:14.880Z,24.91
2023-04-23T07:27:14.848Z,24.91
2023-04-23T07:28:14.880Z,24.91
2023-04-23T07:29:14.838Z,24.92
2023-04-23T07:30:14.903Z,24.93
2023-04-23T07:31:14.837Z,24.93
2023-04-23T07:32:14.881Z,24.93
2023-04-23T07:33:14.860Z,24.94
2023-04-23T07:34:14.805Z,24.94
2023-04-23T07:35:14.812Z,24.94
2023-04-23T07:36:14.829Z,24.95
2023-04-23T07:37:14.822Z,24.95
2023-04-23T07:38:14.825Z,24.96
2023-04-23T07:39:14.851Z,24.95
2023-04-23T07:40:14.804Z,24.96
2023-04-23T07:41:14.757Z,24.97
2023-04-23T07:42:14.754Z,24.97
2023-04-23T07:43:14.825Z,24.97
2023-04-23T07:44:14.765Z,24.97
2023-04-23T07:45:14.736Z,24.98
2023-04-23T07:46:14.796Z,24.98
2023-04-23T07:47:14.739Z,24.99
2023-04-23T07:48:14.710Z,24.99
2023-04-23T07:49:14.714Z,24.99
2023-04-23T07:50:14.714Z,25.01
2023-04-23T07:51:14.710Z,25.01
2023-04-23T07:52:14.731Z,25.02
2023-04-23T07:53:14.675Z,25.03
2023-04-23T07:54:14.689Z,25.04
2023-04-23T07:55:14.728Z,25.04
2023-04-23T07:56:14.778Z,25.04
2023-04-23T07:57:14.669Z,25.04
2023-04-23T07:58:14.693Z,25.04
2023-04-23T07:59:14.632Z,25.05
2023-04-23T08:00:14.687Z,25.05
2023-04-23T08:01:14.604Z,25.07
2023-04-23T08:02:14.837Z,25.09
2023-04-23T08:03:14.725Z,25.10
2023-04-23T08:04:14.929Z,25.10
2023-04-23T08:05:14.738Z,25.10
2023-04-23T08:06:14.631Z,25.09
2023-04-23T08:07:14.634Z,25.11
2023-04-23T08:08:14.626Z,25.12
2023-04-23T08:09:14.591Z,25.13
2023-04-23T08:10:14.582Z,25.15
2023-04-23T08:11:14.580Z,25.15
2023-04-23T08:12:14.606Z,25.17
2023-04-23T08:13:14.610Z,25.19
2023-04-23T08:14:14.621Z,25.19
2023-04-23T08:15:14.642Z,25.20
2023-04-23T08:16:14.717Z,25.22
2023-04-23T08:17:14.707Z,25.22
2023-04-23T08:18:14.701Z,25.23
2023-04-23T08:19:14.708Z,25.24
2023-04-23T08:20:14.787Z,25.25
2023-04-23T08:21:14.740Z,25.25
2023-04-23T08:22:14.769Z,25.26
2023-04-23T08:23:14.787Z,25.26
2023-04-23T08:24:14.804Z,25.27
2023-04-23T08:25:14.849Z,25.27
2023-04-23T08:26:14.846Z,25.27
2023-04-23T08:27:14.862Z,25.26
2023-04-23T08:28:14.935Z,25.27
2023-04-23T08:29:14.873Z,25.28
2023-04-23T08:30:14.940Z,25.28
2023-04-23T08:31:25.626Z,25.29
2023-04-23T08:32:15.949Z,25.29
2023-04-23T08:33:14.889Z,25.30
2023-04-23T08:34:14.932Z,25.31
2023-04-23T08:35:14.913Z,25.31
2023-04-23T08:36:14.862Z,25.31
2023-04-23T08:37:27.100Z,25.32
2023-04-23T08:38:15.858Z,25.33
2023-04-23T08:39:14.882Z,25.33
2023-04-23T08:40:14.869Z,25.33
2023-04-23T08:41:14.804Z,25.33
2023-04-23T08:42:14.882Z,25.34
2023-04-23T08:43:14.819Z,25.35
2023-04-23T08:44:14.825Z,25.35
2023-04-23T08:45:14.837Z,25.36
2023-04-23T08:46:14.868Z,25.36
2023-04-23T08:47:14.845Z,25.37
2023-04-23T08:48:14.780Z,25.38
2023-04-23T08:49:14.811Z,25.38
2023-04-23T08:50:14.770Z,25.38
2023-04-23T08:51:14.784Z,25.38
2023-04-23T08:52:14.779Z,25.39
2023-04-23T08:53:14.758Z,25.37
2023-04-23T08:54:14.731Z,25.37
2023-04-23T08:55:14.749Z,25.36
2023-04-23T08:56:14.705Z,25.37
2023-04-23T08:57:14.727Z,25.38
2023-04-23T08:58:14.720Z,25.38
2023-04-23T08:59:14.724Z,25.41
2023-04-23T09:00:14.732Z,25.41
2023-04-23T09:01:14.735Z,25.42
2023-04-23T09:02:14.784Z,25.42
2023-04-23T09:03:14.761Z,25.43
2023-04-23T09:04:14.701Z,25.43
2023-04-23T09:05:14.668Z,25.44
2023-04-23T09:06:14.672Z,25.42
2023-04-23T09:07:14.773Z,25.41
2023-04-23T09:08:14.660Z,25.41
2023-04-23T09:09:14.645Z,25.41
2023-04-23T09:10:17.710Z,25.41
2023-04-23T09:11:14.664Z,25.41
2023-04-23T09:12:14.651Z,25.40
2023-04-23T09:13:14.628Z,25.40
2023-04-23T09:14:14.612Z,25.39
2023-04-23T09:15:14.610Z,25.40
2023-04-23T09:16:14.593Z,25.41
2023-04-23T09:17:14.572Z,25.42
2023-04-23T09:18:14.642Z,25.43
2023-04-23T09:19:14.550Z,25.44
2023-04-23T09:20:14.525Z,25.43
2023-04-23T09:21:14.562Z,25.43
2023-04-23T09:22:14.567Z,25.43
2023-04-23T09:23:14.573Z,25.43
2023-04-23T09:24:14.553Z,25.43
2023-04-23T09:25:14.558Z,25.43
2023-04-23T09:26:14.501Z,25.43
2023-04-23T09:27:14.509Z,25.44
2023-04-23T09:28:14.523Z,25.45
2023-04-23T09:29:14.500Z,25.46
2023-04-23T09:30:14.475Z,25.48
2023-04-23T09:31:14.467Z,25.48
2023-04-23T09:32:14.528Z,25.49
2023-04-23T09:33:14.480Z,25.51
2023-04-23T09:34:14.497Z,25.51
2023-04-23T09:35:14.474Z,25.52
2023-04-23T09:36:14.458Z,25.52
2023-04-23T09:37:14.417Z,25.53
2023-04-23T09:38:14.422Z,25.54
2023-04-23T09:39:14.421Z,25.54
2023-04-23T09:40:14.445Z,25.54
2023-04-23T09:41:14.391Z,25.55
2023-04-23T09:42:14.401Z,25.55
2023-04-23T09:43:14.420Z,25.57
2023-04-23T09:44:14.379Z,25.57
2023-04-23T09:45:14.363Z,25.58
2023-04-23T09:46:14.376Z,25.58
2023-04-23T09:47:14.332Z,25.59
2023-04-23T09:48:14.335Z,25.59
2023-04-23T09:49:14.337Z,25.59
2023-04-23T09:50:14.333Z,25.61
2023-04-23T09:51:14.352Z,25.61
2023-04-23T09:52:14.313Z,25.62
2023-04-23T09:53:14.323Z,25.62
2023-04-23T09:54:14.330Z,25.63
2023-04-23T09:55:14.290Z,25.64
2023-04-23T09:56:14.305Z,25.65
2023-04-23T09:57:14.352Z,25.65
2023-04-23T09:58:14.275Z,25.66
2023-04-23T09:59:14.269Z,25.66
2023-04-23T10:00:15.280Z,25.66
2023-04-23T10:01:15.299Z,25.67
2023-04-23T10:02:14.359Z,25.67
2023-04-23T10:03:14.372Z,25.66
2023-04-23T10:04:14.455Z,25.67
2023-04-23T10:05:23.601Z,25.67
2023-04-23T10:06:25.745Z,25.67
2023-04-23T10:07:19.517Z,25.65
2023-04-23T10:08:14.336Z,25.64
2023-04-23T10:09:14.177Z,25.65
2023-04-23T10:10:14.173Z,25.67
2023-04-23T10:13:14.179Z,25.69
2023-04-23T10:14:14.185Z,25.69
2023-04-23T10:15:14.164Z,25.70
2023-04-23T10:16:22.284Z,25.71
2023-04-23T10:17:15.134Z,25.72
2023-04-23T10:18:14.191Z,25.73
2023-04-23T10:19:14.140Z,25.74
2023-04-23T10:20:14.144Z,25.74
2023-04-23T10:21:14.157Z,25.74
2023-04-23T10:23:14.109Z,25.76
2023-04-23T10:24:14.075Z,25.76
2023-04-23T10:25:14.134Z,25.78
2023-04-23T10:26:14.182Z,25.78
2023-04-23T10:27:24.749Z,25.79
2023-04-23T10:28:15.084Z,25.78
2023-04-23T10:29:14.041Z,25.80
2023-04-23T10:30:14.078Z,25.80
2023-04-23T10:31:14.037Z,25.81
2023-04-23T10:32:14.074Z,25.81
2023-04-23T10:33:28.610Z,25.81
2023-04-23T10:34:15.073Z,25.82
2023-04-23T10:35:14.046Z,25.82
2023-04-23T10:36:13.983Z,25.83
2023-04-23T10:37:14.002Z,25.83
2023-04-23T10:38:14.123Z,25.85
2023-04-23T10:39:20.759Z,25.85
2023-04-23T10:40:15.197Z,25.84
2023-04-23T10:41:13.994Z,25.84
2023-04-23T10:42:13.994Z,25.85
2023-04-23T10:43:13.936Z,25.85
2023-04-23T10:44:15.969Z,25.85
2023-04-23T10:45:23.391Z,25.84
2023-04-23T10:46:14.953Z,25.84
2023-04-23T10:47:13.932Z,25.85
2023-04-23T10:48:13.923Z,25.87
2023-04-23T10:49:13.939Z,25.87
2023-04-23T10:50:13.915Z,25.86
2023-04-23T10:52:20.025Z,25.87
2023-04-23T10:53:14.914Z,25.87
2023-04-23T10:54:13.925Z,25.87
2023-04-23T10:55:13.872Z,25.87
2023-04-23T10:56:13.879Z,25.88
2023-04-23T10:57:13.899Z,25.88
2023-04-23T10:58:13.888Z,25.89
2023-04-23T10:59:13.848Z,25.88
2023-04-23T11:00:13.909Z,25.87
2023-04-23T11:01:13.863Z,25.88
2023-04-23T11:02:13.949Z,25.87
2023-04-23T11:03:13.941Z,25.86
2023-04-23T11:04:14.000Z,25.85
2023-04-23T11:05:13.883Z,25.85
2023-04-23T11:06:13.831Z,25.86
2023-04-23T11:07:13.799Z,25.87
2023-04-23T11:08:19.234Z,25.89
2023-04-23T11:09:14.812Z,25.89
2023-04-23T11:10:13.781Z,25.90
2023-04-23T11:11:13.770Z,25.92
2023-04-23T11:12:13.791Z,25.91
2023-04-23T11:13:13.804Z,25.92
2023-04-23T11:14:13.745Z,25.93
2023-04-23T11:15:14.279Z,25.94
2023-04-23T11:16:13.796Z,25.94
2023-04-23T11:17:13.723Z,25.95
2023-04-23T11:18:13.795Z,25.95
2023-04-23T11:19:13.898Z,25.96
2023-04-23T11:20:14.268Z,25.96
2023-04-23T11:21:13.924Z,25.97
2023-04-23T11:22:14.008Z,25.97
2023-04-23T11:23:14.057Z,25.96
2023-04-23T11:24:14.067Z,25.95
2023-04-23T11:25:14.154Z,25.93
2023-04-23T11:26:14.193Z,25.93
2023-04-23T11:27:14.210Z,25.92
2023-04-23T11:28:14.284Z,25.94
2023-04-23T11:29:14.421Z,25.96
2023-04-23T11:30:14.370Z,25.97
2023-04-23T11:31:14.427Z,25.97
2023-04-23T11:32:14.536Z,25.98
2023-04-23T11:33:14.766Z,25.98
2023-04-23T11:34:14.607Z,25.99
2023-04-23T11:35:14.612Z,25.99
2023-04-23T11:36:14.677Z,25.99
2023-04-23T11:37:14.678Z,26.00
2023-04-23T11:38:14.797Z,26.00
2023-04-23T11:39:14.759Z,25.99
2023-04-23T11:40:14.849Z,25.99
2023-04-23T11:41:14.921Z,25.99
2023-04-23T11:42:14.947Z,26.01
2023-04-23T11:43:14.973Z,26.02
2023-04-23T11:44:15.183Z,26.02
2023-04-23T11:45:15.090Z,26.02
2023-04-23T11:46:15.146Z,26.04
2023-04-23T11:47:15.267Z,26.03
2023-04-23T11:48:15.202Z,26.03
2023-04-23T11:49:15.287Z,26.04
2023-04-23T11:50:15.293Z,26.04
2023-04-23T11:51:15.334Z,26.03
2023-04-23T11:52:15.384Z,26.02
2023-04-23T11:53:15.459Z,26.01
2023-04-23T11:54:15.463Z,26.01
2023-04-23T11:55:15.521Z,26.00
2023-04-23T11:56:15.567Z,26.00
2023-04-23T11:57:15.584Z,26.01
2023-04-23T11:58:15.698Z,26.03
2023-04-23T11:59:15.651Z,26.03
2023-04-23T12:00:15.756Z,26.05
2023-04-23T12:01:15.765Z,26.05
2023-04-23T12:02:15.897Z,26.06
2023-04-23T12:03:15.910Z,26.05
2023-04-23T12:04:16.123Z,26.05
2023-04-23T12:05:15.900Z,26.04
2023-04-23T12:06:15.906Z,26.04
2023-04-23T12:07:25.899Z,26.06
2023-04-23T12:08:17.748Z,26.06
2023-04-23T12:09:15.981Z,26.06
2023-04-23T12:10:16.633Z,26.08
2023-04-23T12:11:15.909Z,26.08
2023-04-23T12:12:15.945Z,26.07
2023-04-23T12:13:15.903Z,26.07
2023-04-23T12:14:15.952Z,26.06
2023-04-23T12:15:15.901Z,26.07
2023-04-23T12:16:15.890Z,26.09
2023-04-23T12:17:15.860Z,26.11
2023-04-23T12:18:15.872Z,26.11
2023-04-23T12:19:15.903Z,26.11
2023-04-23T12:20:15.898Z,26.12
2023-04-23T12:21:15.870Z,26.12
2023-04-23T12:22:15.901Z,26.13
2023-04-23T12:23:15.979Z,26.13
2023-04-23T12:24:15.998Z,26.11
2023-04-23T12:25:16.016Z,26.11
2023-04-23T12:26:16.084Z,26.09
2023-04-23T12:27:16.163Z,26.10
2023-04-23T12:28:16.104Z,26.08
2023-04-23T12:29:16.158Z,26.09
2023-04-23T12:30:16.209Z,26.08
2023-04-23T12:31:16.253Z,26.09
2023-04-23T12:32:16.252Z,26.09
2023-04-23T12:33:16.252Z,26.08
2023-04-23T12:34:16.292Z,26.09
2023-04-23T12:35:16.371Z,26.09
2023-04-23T12:36:16.354Z,26.09
2023-04-23T12:37:16.359Z,26.11
2023-04-23T12:38:16.433Z,26.13
2023-04-23T12:39:16.406Z,26.14
2023-04-23T12:40:16.479Z,26.14
2023-04-23T12:41:16.493Z,26.14
2023-04-23T12:42:16.499Z,26.13
2023-04-23T12:43:16.585Z,26.13
2023-04-23T12:44:16.614Z,26.14
2023-04-23T12:45:16.621Z,26.13
2023-04-23T12:46:16.662Z,26.13
2023-04-23T12:47:16.637Z,26.13
2023-04-23T12:48:16.703Z,26.13
2023-04-23T12:49:16.778Z,26.14
2023-04-23T12:50:16.753Z,26.14
2023-04-23T12:51:16.789Z,26.14
2023-04-23T12:52:16.835Z,26.14
2023-04-23T12:53:16.855Z,26.14
2023-04-23T12:54:16.843Z,26.15
2023-04-23T12:55:16.909Z,26.15
2023-04-23T12:56:16.889Z,26.16
2023-04-23T12:57:17.854Z,26.18
2023-04-23T12:58:16.971Z,26.18